Time;durP1;ratioP1;P1;durP2;ratioP2;P2;SDS_P1;SDS_P2;PMS_P1;PMS_P2;Temp;Humidity;BMP_temperature;BMP_pressure;BME280_temperature;BME280_humidity;BME280_pressure;Samples;Min_cycle;Max_cycle;Signal;HPM_P1;HPM_P2
2021/06/09 00:00:48;;;;;;;10.82;9.73;;;;;;;17.01;79.49;99242.22;5093687;28;20039;-78
2021/06/09 00:03:14;;;;;;;13.93;9.98;;;;;;;16.91;79.73;99233.16;5041559;28;20085;-81
2021/06/09 00:05:40;;;;;;;11.90;10.15;;;;;;;16.81;80.18;99233.69;5075865;28;20052;-78
2021/06/09 00:08:09;;;;;;;12.68;10.10;;;;;;;16.79;80.57;99240.84;5075423;28;20493;-80
2021/06/09 00:10:35;;;;;;;14.85;10.57;;;;;;;16.82;80.12;99237.16;5075320;28;20074;-77
2021/06/09 00:13:01;;;;;;;12.18;10.07;;;;;;;16.82;80.26;99239.81;5091672;28;20068;-80
2021/06/09 00:15:27;;;;;;;13.25;9.95;;;;;;;16.83;80.16;99246.78;5057118;28;20417;-74
2021/06/09 00:17:53;;;;;;;13.93;9.82;;;;;;;16.92;80.16;99242.78;5091973;28;20036;-79
2021/06/09 00:20:21;;;;;;;12.10;10.43;;;;;;;16.92;79.71;99229.56;5091870;28;20046;-79
2021/06/09 00:22:47;;;;;;;13.90;10.13;;;;;;;16.99;79.76;99241.47;5092474;28;20085;-79
2021/06/09 00:25:15;;;;;;;12.00;10.18;;;;;;;16.91;79.91;99243.72;5057501;28;20420;-80
2021/06/09 00:27:46;;;;;;;13.45;9.27;;;;;;;17.02;79.93;99246.56;5058148;28;20043;-77
2021/06/09 00:30:14;;;;;;;18.20;9.60;;;;;;;17.13;79.20;99241.53;5090441;28;20086;-80
2021/06/09 00:32:40;;;;;;;15.40;9.13;;;;;;;17.08;79.27;99230.38;5075691;28;20093;-80
2021/06/09 00:35:06;;;;;;;12.68;9.95;;;;;;;17.05;79.69;99246.41;5091727;28;20051;-81
2021/06/09 00:37:32;;;;;;;11.40;10.20;;;;;;;17.10;79.66;99241.72;5092422;28;20185;-78
2021/06/09 00:39:58;;;;;;;17.70;12.65;;;;;;;17.09;79.55;99242.63;5074690;28;20514;-79
2021/06/09 00:42:24;;;;;;;15.52;10.15;;;;;;;17.11;79.71;99236.34;5074855;28;20036;-77
2021/06/09 00:44:50;;;;;;;15.43;11.57;;;;;;;17.12;79.65;99238.06;5091728;28;20085;-80
2021/06/09 00:47:22;;;;;;;13.73;11.52;;;;;;;17.14;79.38;99240.59;5075219;28;20052;-77
2021/06/09 00:49:49;;;;;;;12.23;9.27;;;;;;;17.14;79.29;99240.59;5092085;28;20047;-78
2021/06/09 00:52:15;;;;;;;15.40;9.98;;;;;;;17.18;79.34;99242.13;5074249;28;20496;-78
2021/06/09 00:54:40;;;;;;;17.67;9.80;;;;;;;17.20;79.15;99240.25;5075234;28;20051;-78
2021/06/09 00:57:07;;;;;;;9.38;8.45;;;;;;;17.21;79.29;99241.94;5075823;28;20459;-78
2021/06/09 00:59:34;;;;;;;13.77;9.30;;;;;;;17.18;79.39;99236.00;5075608;28;20036;-78
2021/06/09 01:02:00;;;;;;;12.35;9.32;;;;;;;17.15;79.39;99237.88;5091700;28;20197;-79
2021/06/09 01:04:26;;;;;;;10.25;9.10;;;;;;;17.20;79.39;99242.88;5075352;28;20042;-78
2021/06/09 01:06:52;;;;;;;12.73;9.52;;;;;;;17.12;79.54;99230.13;5041843;28;20044;-78
2021/06/09 01:09:18;;;;;;;16.80;10.35;;;;;;;17.10;79.99;99234.66;5090846;28;20436;-78
2021/06/09 01:11:44;;;;;;;12.63;10.30;;;;;;;17.07;80.01;99223.38;5073639;28;20040;-80
2021/06/09 01:14:10;;;;;;;11.55;9.95;;;;;;;17.16;79.93;99244.00;5072845;28;20134;-74
2021/06/09 01:16:36;;;;;;;14.93;11.05;;;;;;;17.17;79.71;99245.72;5074312;28;20122;-79
2021/06/09 01:19:02;;;;;;;17.17;12.07;;;;;;;17.16;79.91;99246.66;5039820;28;20044;-77
2021/06/09 01:21:33;;;;;;;18.13;12.10;;;;;;;17.18;79.93;99241.28;5089703;28;20117;-77
2021/06/09 01:24:00;;;;;;;14.13;12.10;;;;;;;17.05;80.16;99235.81;5089621;28;20052;-78
2021/06/09 01:26:26;;;;;;;17.42;12.98;;;;;;;17.20;80.17;99253.44;5089811;28;20044;-77
2021/06/09 01:28:54;;;;;;;18.83;13.82;;;;;;;17.19;80.35;99254.41;5089298;28;20040;-76
2021/06/09 01:31:20;;;;;;;14.73;13.27;;;;;;;17.23;80.27;99255.91;5091893;28;20097;-79
2021/06/09 01:33:46;;;;;;;19.70;14.10;;;;;;;17.27;79.73;99257.44;5073853;28;20535;-76
2021/06/09 01:36:12;;;;;;;15.55;13.90;;;;;;;17.24;79.79;99244.41;5090439;28;20068;-76
2021/06/09 01:38:52;;;;;;;16.40;13.90;;;;;;;17.25;79.94;99264.59;5075291;28;20052;-78
2021/06/09 01:41:22;;;;;;;16.42;13.25;;;;;;;17.28;80.03;99259.13;5057703;28;20158;-78
2021/06/09 01:43:48;;;;;;;19.88;17.45;;;;;;;17.28;79.88;99263.56;5090577;28;20501;-76
2021/06/09 01:46:16;;;;;;;17.45;14.25;;;;;;;17.24;80.14;99254.97;5090709;28;20082;-78
2021/06/09 01:48:43;;;;;;;23.33;17.08;;;;;;;17.24;80.17;99262.91;5091373;28;20044;-79
2021/06/09 01:51:09;;;;;;;36.75;22.60;;;;;;;17.23;80.28;99247.13;5073316;28;20051;-78
2021/06/09 01:53:35;;;;;;;20.65;15.07;;;;;;;17.03;80.23;99232.44;5092101;28;20057;-77
2021/06/09 01:56:01;;;;;;;19.00;14.80;;;;;;;17.19;80.18;99261.47;5090404;28;20059;-78
2021/06/09 01:58:27;;;;;;;19.08;14.80;;;;;;;17.17;80.12;99256.28;5090209;28;20081;-80
2021/06/09 02:00:54;;;;;;;16.48;13.45;;;;;;;17.13;80.31;99250.31;5073923;28;20040;-80
2021/06/09 02:03:19;;;;;;;22.85;15.77;;;;;;;17.09;79.86;99245.28;5091083;28;20489;-76
2021/06/09 02:05:45;;;;;;;18.60;15.10;;;;;;;17.15;80.14;99253.72;5089283;28;20050;-79
2021/06/09 02:08:13;;;;;;;23.70;17.27;;;;;;;17.14;80.13;99259.09;5089814;28;20044;-77
2021/06/09 02:10:40;;;;;;;20.27;16.20;;;;;;;17.19;79.97;99258.81;5089334;28;20047;-78
2021/06/09 02:13:12;;;;;;;32.70;19.92;;;;;;;17.17;79.87;99253.63;5088921;28;20044;-78
2021/06/09 02:15:37;;;;;;;19.35;15.90;;;;;;;17.15;79.80;99234.38;5089245;28;20131;-79
2021/06/09 02:18:11;;;;;;;23.73;16.55;;;;;;;17.20;79.54;99239.38;5088464;28;20140;-76
2021/06/09 02:20:53;;;;;;;19.67;16.98;;;;;;;17.28;79.44;99253.84;5091316;28;20044;-78
2021/06/09 02:23:21;;;;;;;17.45;14.13;;;;;;;17.10;79.28;99234.66;5091152;28;20408;-78
2021/06/09 02:25:51;;;;;;;19.58;14.65;;;;;;;17.24;79.65;99246.19;5089066;28;20451;-77
2021/06/09 02:28:19;;;;;;;18.27;14.18;;;;;;;17.12;79.56;99231.91;5091340;28;20064;-79
2021/06/09 02:30:46;;;;;;;19.23;14.25;;;;;;;17.19;79.40;99242.97;5090037;28;20085;-77
2021/06/09 02:33:14;;;;;;;17.90;14.63;;;;;;;17.20;79.69;99244.69;5089670;28;20047;-78
2021/06/09 02:35:42;;;;;;;16.38;14.65;;;;;;;17.13;79.49;99241.53;5090877;28;20075;-77
2021/06/09 02:38:09;;;;;;;18.98;14.48;;;;;;;17.13;79.88;99260.91;5087862;28;20162;-77
2021/06/09 02:40:37;;;;;;;16.63;14.90;;;;;;;17.13;79.71;99262.69;5072780;28;20119;-71
2021/06/09 02:43:03;;;;;;;17.13;14.95;;;;;;;17.17;79.47;99256.28;5087429;28;20504;-73
2021/06/09 02:45:31;;;;;;;19.52;14.00;;;;;;;17.15;79.56;99263.44;5089656;28;20446;-74
2021/06/09 02:48:07;;;;;;;16.27;14.25;;;;;;;17.07;79.76;99250.66;5088443;28;20392;-72
2021/06/09 02:50:33;;;;;;;18.80;13.18;;;;;;;17.07;79.78;99265.66;5088709;28;20412;-69
2021/06/09 02:53:25;;;;;;;18.88;14.35;;;;;;;17.02;80.01;99265.06;5055155;28;20591;-74
2021/06/09 02:56:02;;;;;;;15.90;14.20;;;;;;;16.98;80.29;99274.13;5089914;28;20413;-73
2021/06/09 02:58:46;;;;;;;15.50;12.18;;;;;;;16.91;80.38;99281.53;5088672;28;20046;-73
2021/06/09 03:01:36;;;;;;;16.35;13.68;;;;;;;16.93;80.19;99281.47;5089023;28;20036;-66
2021/06/09 03:04:21;;;;;;;21.45;17.15;;;;;;;16.96;80.06;99283.91;5088079;28;20048;-65
2021/06/09 03:06:59;;;;;;;21.65;16.95;;;;;;;17.03;80.14;99279.97;5055486;28;20045;-67
2021/06/09 03:09:43;;;;;;;22.58;15.38;;;;;;;16.90;80.20;99273.72;5072365;28;20048;-66
2021/06/09 03:12:20;;;;;;;22.35;15.27;;;;;;;16.84;80.40;99281.03;5088561;28;20052;-66
2021/06/09 03:15:17;;;;;;;20.88;15.80;;;;;;;16.75;80.37;99292.13;5056131;28;20493;-66
2021/06/09 03:17:56;;;;;;;21.25;16.05;;;;;;;16.59;80.99;99291.25;5087360;28;20123;-67
2021/06/09 03:20:40;;;;;;;22.27;15.98;;;;;;;16.69;81.14;99291.63;5071709;28;20040;-67
2021/06/09 03:23:17;;;;;;;23.38;16.52;;;;;;;16.71;81.13;99295.03;5089304;28;20043;-67
2021/06/09 03:26:02;;;;;;;27.85;18.63;;;;;;;16.70;80.93;99282.78;5055114;28;20055;-67
2021/06/09 03:28:49;;;;;;;28.60;19.27;;;;;;;16.73;81.04;99288.72;5071277;28;20428;-66
2021/06/09 03:31:21;;;;;;;65.88;38.83;;;;;;;16.62;81.31;99296.38;5091927;28;20040;-66
2021/06/09 03:33:51;;;;;;;39.08;23.63;;;;;;;16.52;81.84;99295.19;5091542;28;20055;-67
2021/06/09 03:36:21;;;;;;;29.50;21.00;;;;;;;16.55;81.89;99291.53;5092125;28;20048;-65
2021/06/09 03:39:04;;;;;;;40.92;26.45;;;;;;;16.65;81.31;99301.53;5091855;28;20040;-65
2021/06/09 03:41:39;;;;;;;43.38;29.10;;;;;;;16.63;81.35;99276.09;5090301;28;20036;-66
2021/06/09 03:44:06;;;;;;;28.48;21.67;;;;;;;16.60;81.35;99286.84;5091622;28;20466;-65
2021/06/09 03:46:33;;;;;;;30.98;21.20;;;;;;;16.58;81.50;99300.13;5092093;28;20055;-66
2021/06/09 03:48:59;;;;;;;30.35;22.42;;;;;;;16.57;81.95;99297.56;5091655;28;20043;-69
2021/06/09 03:51:28;;;;;;;29.45;21.33;;;;;;;16.48;82.04;99291.00;5090894;28;20036;-67
2021/06/09 03:53:55;;;;;;;28.25;20.02;;;;;;;16.47;81.76;99284.03;5092791;28;20504;-68
2021/06/09 03:56:23;;;;;;;35.03;24.50;;;;;;;16.56;81.71;99299.34;5092445;28;20044;-67
2021/06/09 03:58:50;;;;;;;36.50;24.40;;;;;;;16.61;81.44;99293.81;5074704;28;20044;-67
2021/06/09 04:01:16;;;;;;;29.55;21.25;;;;;;;16.61;81.60;99289.38;5090815;28;20044;-67
2021/06/09 04:03:45;;;;;;;33.17;21.60;;;;;;;16.58;81.97;99294.00;5090002;28;20553;-67
2021/06/09 04:06:12;;;;;;;37.80;25.35;;;;;;;16.68;81.59;99296.06;5089604;28;20055;-71
2021/06/09 04:08:39;;;;;;;62.40;33.88;;;;;;;16.58;81.63;99292.22;5088989;28;20497;-66
2021/06/09 04:11:04;;;;;;;49.47;28.88;;;;;;;16.59;82.02;99312.38;5090453;28;20514;-66
2021/06/09 04:13:30;;;;;;;37.17;23.88;;;;;;;16.57;81.95;99294.94;5073607;28;20044;-65
2021/06/09 04:15:58;;;;;;;39.83;25.60;;;;;;;16.58;82.30;99292.22;5090626;28;20044;-67
2021/06/09 04:18:24;;;;;;;61.30;37.55;;;;;;;16.56;82.62;99280.88;5056813;28;20056;-67
2021/06/09 04:20:50;;;;;;;43.85;27.38;;;;;;;16.62;82.37;99295.53;5073888;28;20043;-68
2021/06/09 04:23:16;;;;;;;36.45;23.88;;;;;;;16.46;82.21;99266.50;5089564;28;20135;-65
2021/06/09 04:25:42;;;;;;;40.85;25.15;;;;;;;16.58;82.30;99288.72;5091779;28;20072;-64
2021/06/09 04:28:10;;;;;;;63.53;34.17;;;;;;;16.68;81.84;99282.84;5090556;28;20093;-65
2021/06/09 04:30:36;;;;;;;52.83;33.28;;;;;;;16.65;82.13;99277.75;5090072;28;20044;-65
2021/06/09 04:33:10;;;;;;;34.97;25.00;;;;;;;16.62;82.19;99272.63;5090178;28;20136;-65
2021/06/09 04:35:38;;;;;;;50.40;27.83;;;;;;;16.60;82.21;99286.84;5089766;28;20412;-64
2021/06/09 04:38:05;;;;;;;59.55;38.25;;;;;;;16.71;81.93;99302.97;5090124;28;20580;-63
2021/06/09 04:40:32;;;;;;;46.38;31.48;;;;;;;16.76;81.99;99304.41;5070876;28;20047;-64
2021/06/09 04:42:58;;;;;;;38.67;27.15;;;;;;;16.81;81.63;99312.91;5089955;28;20046;-66
2021/06/09 04:45:27;;;;;;;34.67;23.40;;;;;;;16.83;81.73;99303.13;5091003;28;20048;-65
2021/06/09 04:47:53;;;;;;;30.15;20.92;;;;;;;16.90;81.50;99284.28;5089467;28;20044;-65
2021/06/09 04:50:22;;;;;;;37.55;24.38;;;;;;;16.94;81.31;99296.38;5054774;28;20036;-63
2021/06/09 04:52:49;;;;;;;41.22;23.92;;;;;;;16.98;81.21;99300.53;5056300;28;20048;-64
2021/06/09 04:55:15;;;;;;;41.35;25.20;;;;;;;17.08;80.80;99293.78;5073095;28;20120;-67
2021/06/09 04:57:42;;;;;;;34.30;24.05;;;;;;;17.13;80.39;99291.75;5072824;28;20157;-63
2021/06/09 05:00:10;;;;;;;34.45;22.77;;;;;;;17.14;80.67;99306.66;5074753;28;20040;-65
2021/06/09 05:02:36;;;;;;;22.95;17.73;;;;;;;17.20;79.93;99303.66;5089309;28;20390;-65
2021/06/09 05:05:03;;;;;;;28.80;20.73;;;;;;;17.25;79.92;99301.59;5090085;28;20048;-67
2021/06/09 05:07:29;;;;;;;29.55;21.98;;;;;;;17.21;79.98;99305.38;5090327;28;20134;-66
2021/06/09 05:09:55;;;;;;;31.77;21.23;;;;;;;17.31;79.66;99288.03;5090231;28;20047;-69
2021/06/09 05:12:24;;;;;;;27.92;18.55;;;;;;;17.26;79.74;99282.16;5091086;28;20503;-67
2021/06/09 05:15:07;;;;;;;24.48;16.77;;;;;;;17.35;79.72;99297.47;5091048;28;20497;-67
2021/06/09 05:17:46;;;;;;;24.70;18.45;;;;;;;17.38;79.89;99297.31;5090884;28;20085;-67
2021/06/09 05:20:33;;;;;;;25.92;17.40;;;;;;;17.54;79.10;99296.38;5090066;28;20411;-67
2021/06/09 05:22:59;;;;;;;22.67;16.02;;;;;;;17.53;79.20;99302.63;5056823;28;20086;-66
2021/06/09 05:25:25;;;;;;;22.33;18.40;;;;;;;17.45;79.00;99293.34;5089946;28;20064;-65
2021/06/09 05:27:51;;;;;;;34.22;18.42;;;;;;;17.47;78.93;99286.19;5089639;28;20040;-65
2021/06/09 05:30:18;;;;;;;22.25;16.65;;;;;;;17.70;78.56;99300.69;5090140;28;20093;-67
2021/06/09 05:32:44;;;;;;;24.50;17.20;;;;;;;17.79;77.96;99291.34;5090919;28;20036;-63
2021/06/09 05:35:11;;;;;;;21.80;15.95;;;;;;;17.95;77.06;99297.44;5091086;28;20485;-64
2021/06/09 05:37:37;;;;;;;27.30;15.75;;;;;;;18.02;77.22;99298.75;5089750;28;20102;-65
2021/06/09 05:40:08;;;;;;;20.77;14.50;;;;;;;17.98;77.00;99299.88;5089709;28;20409;-64
2021/06/09 05:42:34;;;;;;;17.00;13.65;;;;;;;18.05;76.81;99301.22;5090690;28;20533;-63
2021/06/09 05:45:00;;;;;;;19.27;14.43;;;;;;;17.93;77.03;99291.38;5091074;28;20126;-64
2021/06/09 05:47:26;;;;;;;18.85;14.98;;;;;;;18.04;76.98;99302.16;5090977;28;20131;-64
2021/06/09 05:50:08;;;;;;;22.38;15.32;;;;;;;18.15;76.52;99301.50;5089166;28;20047;-65
2021/06/09 05:52:35;;;;;;;20.38;14.65;;;;;;;18.14;76.21;99285.69;5090053;28;20048;-65
2021/06/09 05:55:00;;;;;;;16.98;14.48;;;;;;;18.23;75.71;99301.84;5089371;28;20056;-64
2021/06/09 05:57:26;;;;;;;24.75;14.48;;;;;;;18.31;75.61;99298.72;5091076;28;20044;-63
2021/06/09 05:59:52;;;;;;;20.45;14.35;;;;;;;18.31;75.70;99306.66;5091130;28;20457;-65
2021/06/09 06:02:18;;;;;;;24.73;16.83;;;;;;;18.20;76.10;99302.06;5089374;28;20059;-65
2021/06/09 06:04:44;;;;;;;24.55;15.23;;;;;;;18.28;75.92;99310.38;5090210;28;20051;-64
2021/06/09 06:07:10;;;;;;;25.15;15.90;;;;;;;18.38;75.47;99297.41;5089779;28;20040;-64
2021/06/09 06:09:37;;;;;;;30.02;16.20;;;;;;;18.46;75.34;99292.47;5088307;28;20097;-65
2021/06/09 06:12:04;;;;;;;25.02;13.98;;;;;;;18.51;74.74;99284.22;5089062;28;20058;-65
2021/06/09 06:14:30;;;;;;;21.98;15.60;;;;;;;18.70;74.19;99301.53;5088996;28;20098;-64
2021/06/09 06:16:56;;;;;;;25.60;16.52;;;;;;;18.70;73.90;99296.25;5072766;28;20500;-66
2021/06/09 06:19:27;;;;;;;29.02;16.08;;;;;;;18.83;73.35;99304.25;5089565;28;20044;-65
2021/06/09 06:21:53;;;;;;;23.50;14.82;;;;;;;18.83;73.32;99300.75;5089706;28;20036;-63
2021/06/09 06:24:19;;;;;;;23.88;14.93;;;;;;;18.87;72.91;99295.16;5090845;28;20047;-65
2021/06/09 06:26:46;;;;;;;24.00;15.27;;;;;;;18.80;73.30;99311.53;5089376;28;20051;-64
2021/06/09 06:29:13;;;;;;;25.75;15.02;;;;;;;18.95;72.71;99306.09;5072687;28;20455;-63
2021/06/09 06:31:38;;;;;;;22.55;14.77;;;;;;;18.99;72.74;99306.75;5072893;28;20120;-65
2021/06/09 06:34:04;;;;;;;17.20;13.43;;;;;;;19.03;72.32;99308.25;5089898;28;20089;-65
2021/06/09 06:36:30;;;;;;;18.65;13.90;;;;;;;19.17;71.61;99310.84;5090688;28;20051;-65
2021/06/09 06:38:56;;;;;;;19.17;13.43;;;;;;;19.23;71.35;99314.88;5056175;28;20059;-64
2021/06/09 06:41:23;;;;;;;18.73;13.80;;;;;;;19.32;70.97;99298.34;5089586;28;20044;-65
2021/06/09 06:43:50;;;;;;;19.48;13.48;;;;;;;19.42;70.79;99296.81;5072845;28;20048;-63
2021/06/09 06:46:17;;;;;;;16.85;13.13;;;;;;;19.67;69.48;99303.97;5089503;28;20493;-65
2021/06/09 06:48:46;;;;;;;18.42;14.20;;;;;;;19.82;68.97;99307.38;5055849;28;20039;-64
2021/06/09 06:51:14;;;;;;;17.98;14.50;;;;;;;19.76;69.37;99316.59;5072949;28;20459;-65
2021/06/09 06:53:42;;;;;;;26.10;16.15;;;;;;;19.78;69.00;99311.19;5072974;28;20061;-65
2021/06/09 06:56:08;;;;;;;23.88;15.75;;;;;;;19.81;68.64;99311.84;5055680;28;20147;-63
2021/06/09 06:58:35;;;;;;;23.40;15.18;;;;;;;19.81;68.57;99319.78;5088893;28;20051;-67
2021/06/09 07:01:03;;;;;;;28.30;15.50;;;;;;;20.07;67.88;99311.84;5072472;28;20512;-63
2021/06/09 07:03:30;;;;;;;22.40;14.73;;;;;;;20.27;67.23;99322.78;5090015;28;20042;-65
2021/06/09 07:05:56;;;;;;;17.10;14.43;;;;;;;20.40;66.83;99314.81;5094769;28;20082;-64
2021/06/09 07:08:23;;;;;;;17.00;14.45;;;;;;;20.37;66.97;99325.63;5059196;28;20051;-64
2021/06/09 07:10:49;;;;;;;16.77;14.13;;;;;;;20.06;67.97;99326.06;5076584;28;20102;-65
2021/06/09 07:13:15;;;;;;;14.35;12.52;;;;;;;19.67;67.81;99319.91;5093864;28;20101;-64
2021/06/09 07:15:42;;;;;;;20.00;12.38;;;;;;;19.57;68.42;99316.16;5042432;28;20092;-65
2021/06/09 07:18:08;;;;;;;19.90;11.70;;;;;;;19.46;68.67;99318.66;5075914;28;20062;-65
2021/06/09 07:20:34;;;;;;;13.90;11.75;;;;;;;19.59;68.14;99330.19;5059616;28;20493;-65
2021/06/09 07:23:00;;;;;;;16.17;12.30;;;;;;;20.14;66.35;99343.19;5094599;28;20516;-63
2021/06/09 07:25:29;;;;;;;13.63;11.63;;;;;;;20.52;65.38;99337.84;5093087;28;20044;-63
2021/06/09 07:28:14;;;;;;;16.77;12.38;;;;;;;20.97;64.12;99329.31;5092857;28;20434;-64
2021/06/09 07:30:41;;;;;;;15.98;11.95;;;;;;;21.53;62.11;99327.78;5059015;28;20371;-66
2021/06/09 07:33:07;;;;;;;13.48;10.82;;;;;;;21.76;61.40;99326.88;5059659;28;20039;-64
2021/06/09 07:35:33;;;;;;;12.60;10.82;;;;;;;21.88;60.87;99319.78;5092961;28;20044;-67
2021/06/09 07:38:04;;;;;;;17.17;11.73;;;;;;;22.29;59.52;99335.22;5075978;28;20389;-65
2021/06/09 07:40:33;;;;;;;13.80;10.95;;;;;;;22.43;59.05;99312.81;5059238;28;20408;-66
2021/06/09 07:43:04;;;;;;;15.57;10.90;;;;;;;22.00;60.04;99320.63;5075886;28;20434;-66
2021/06/09 07:45:31;;;;;;;16.88;9.98;;;;;;;22.00;59.36;99315.31;5076125;28;20052;-66
2021/06/09 07:47:58;;;;;;;17.05;10.07;;;;;;;22.05;58.96;99313.16;5059283;28;20043;-65
2021/06/09 07:50:40;;;;;;;17.27;9.45;;;;;;;22.12;58.66;99336.53;5042278;28;20032;-66
2021/06/09 07:53:09;;;;;;;16.88;9.82;;;;;;;21.89;59.78;99330.31;5092293;28;20457;-66
2021/06/09 07:55:36;;;;;;;16.15;9.23;;;;;;;21.68;60.36;99341.75;5092166;28;20048;-65
2021/06/09 07:58:04;;;;;;;15.48;9.57;;;;;;;21.40;60.87;99333.19;5093065;28;20048;-66
2021/06/09 08:00:30;;;;;;;13.00;10.45;;;;;;;21.02;61.41;99343.13;5092856;28;20143;-64
2021/06/09 08:02:56;;;;;;;14.88;10.13;;;;;;;20.79;62.86;99342.13;5094094;28;20036;-67
2021/06/09 08:05:24;;;;;;;16.60;10.82;;;;;;;20.95;63.26;99356.03;5058905;28;20093;-64
2021/06/09 08:07:51;;;;;;;14.27;10.43;;;;;;;21.41;61.54;99339.34;5093455;28;20048;-66
2021/06/09 08:10:17;;;;;;;12.45;9.85;;;;;;;21.63;60.87;99355.41;5092075;28;20109;-64
2021/06/09 08:12:43;;;;;;;13.48;9.88;;;;;;;21.66;60.34;99333.88;5093411;28;20493;-64
2021/06/09 08:15:09;;;;;;;13.77;10.18;;;;;;;21.48;60.26;99328.13;5092612;28;20136;-64
2021/06/09 08:17:38;;;;;;;27.75;10.20;;;;;;;22.29;58.60;99345.03;5075125;28;20489;-65
2021/06/09 08:20:04;;;;;;;18.48;10.75;;;;;;;22.17;59.02;99346.81;5092300;28;20436;-63
2021/06/09 08:22:30;;;;;;;12.75;9.68;;;;;;;22.26;58.74;99332.78;5092114;28;20054;-63
2021/06/09 08:24:56;;;;;;;13.18;9.48;;;;;;;22.12;59.17;99333.03;5091755;28;20489;-64
2021/06/09 08:27:22;;;;;;;14.18;9.55;;;;;;;22.00;59.29;99347.25;5093543;28;20635;-64
2021/06/09 08:29:47;;;;;;;17.13;9.57;;;;;;;21.59;59.95;99339.78;5092731;28;20078;-66
2021/06/09 08:32:13;;;;;;;16.98;10.02;;;;;;;21.30;60.54;99326.00;5093291;28;20047;-65
2021/06/09 08:34:39;;;;;;;10.38;9.10;;;;;;;21.33;60.97;99342.59;5092814;28;20055;-64
2021/06/09 08:37:04;;;;;;;17.40;9.88;;;;;;;20.98;62.39;99349.63;5092552;28;20074;-65
2021/06/09 08:39:30;;;;;;;12.35;9.50;;;;;;;20.89;60.91;99330.75;5090959;28;20432;-65
2021/06/09 08:41:57;;;;;;;16.13;9.35;;;;;;;20.96;61.10;99333.78;5091455;28;20036;-63
2021/06/09 08:44:24;;;;;;;16.20;9.38;;;;;;;21.45;59.84;99340.81;5058008;28;20123;-65
2021/06/09 08:46:49;;;;;;;18.42;10.82;;;;;;;21.97;58.45;99336.84;5092761;28;20056;-65
2021/06/09 08:49:18;;;;;;;13.68;9.73;;;;;;;22.42;57.64;99337.78;5091285;28;20048;-65
2021/06/09 08:51:45;;;;;;;14.70;9.10;;;;;;;22.90;56.27;99343.66;5057719;28;20040;-66
2021/06/09 08:54:11;;;;;;;14.05;9.35;;;;;;;22.74;57.41;99338.69;5091160;28;20098;-65
2021/06/09 08:56:38;;;;;;;15.30;10.85;;;;;;;22.27;59.39;99339.81;5091586;28;20513;-64
2021/06/09 08:59:05;;;;;;;16.17;11.00;;;;;;;21.57;60.49;99315.97;5091412;28;20564;-64
2021/06/09 09:01:33;;;;;;;14.70;9.95;;;;;;;21.52;61.26;99326.06;5092764;28;20540;-63
2021/06/09 09:03:59;;;;;;;14.00;10.65;;;;;;;21.62;60.66;99335.09;5092720;28;20136;-64
2021/06/09 09:06:24;;;;;;;13.00;10.15;;;;;;;21.59;61.10;99331.81;5092587;28;20434;-64
2021/06/09 09:08:53;;;;;;;19.10;10.30;;;;;;;21.87;60.37;99332.25;5092684;28;20515;-65
2021/06/09 09:11:20;;;;;;;16.65;10.90;;;;;;;21.92;59.99;99334.53;5092927;28;20094;-65
2021/06/09 09:13:46;;;;;;;15.10;10.00;;;;;;;21.91;59.75;99350.63;5092423;28;20074;-66
2021/06/09 09:16:12;;;;;;;14.80;10.38;;;;;;;21.49;60.20;99342.28;5092023;28;20131;-63
2021/06/09 09:18:46;;;;;;;14.35;9.80;;;;;;;21.40;60.73;99327.84;5092553;28;20566;-63
2021/06/09 09:21:14;;;;;;;14.15;9.07;;;;;;;21.57;60.54;99323.94;5090788;28;20044;-64
2021/06/09 09:23:50;;;;;;;12.23;9.55;;;;;;;21.40;61.36;99348.28;5073869;28;20075;-65
2021/06/09 09:26:29;;;;;;;18.55;10.77;;;;;;;21.13;62.84;99341.38;5090613;28;20112;-64
2021/06/09 09:29:11;;;;;;;12.75;9.23;;;;;;;21.18;61.64;99339.22;5090261;28;20047;-65
2021/06/09 09:32:07;;;;;;;23.17;9.65;;;;;;;21.38;60.83;99318.28;5092998;28;20485;-67
2021/06/09 09:34:36;;;;;;;11.55;9.00;;;;;;;21.41;60.99;99334.88;5090684;28;20036;-65
2021/06/09 09:37:03;;;;;;;11.45;8.80;;;;;;;21.46;61.06;99332.72;5092436;28;20135;-64
2021/06/09 09:39:30;;;;;;;12.93;9.25;;;;;;;21.27;61.34;99323.56;5092108;28;20126;-65
2021/06/09 09:41:56;;;;;;;16.60;9.65;;;;;;;21.12;62.13;99321.06;5091869;28;20550;-64
2021/06/09 09:44:22;;;;;;;18.13;9.48;;;;;;;20.96;62.15;99315.19;5092180;28;20165;-64
2021/06/09 09:46:55;;;;;;;15.00;9.18;;;;;;;21.05;62.50;99330.47;5091790;28;20142;-66
2021/06/09 09:49:22;;;;;;;20.13;9.88;;;;;;;21.01;62.91;99326.31;5073696;28;20043;-65
2021/06/09 09:51:50;;;;;;;17.90;9.57;;;;;;;21.25;62.92;99321.88;5092143;28;20084;-64
2021/06/09 09:54:26;;;;;;;13.40;9.40;;;;;;;21.31;62.36;99317.91;5090014;28;20374;-66
2021/06/09 09:56:52;;;;;;;16.23;9.15;;;;;;;21.28;61.90;99312.81;5092028;28;20043;-64
2021/06/09 09:59:23;;;;;;;10.02;8.25;;;;;;;21.35;60.89;99307.88;5091938;28;20386;-64
2021/06/09 10:01:53;;;;;;;14.60;8.32;;;;;;;20.97;61.35;99324.84;5091544;28;20051;-64
2021/06/09 10:04:22;;;;;;;10.25;7.90;;;;;;;20.90;61.88;99312.97;5091160;28;20040;-66
2021/06/09 10:06:50;;;;;;;12.98;8.52;;;;;;;20.97;62.47;99318.69;5091490;28;20035;-64
2021/06/09 10:09:20;;;;;;;12.70;8.98;;;;;;;20.92;61.39;99330.50;5073475;28;20044;-65
2021/06/09 10:11:48;;;;;;;8.85;7.55;;;;;;;21.02;60.78;99333.34;5091416;28;20055;-65
2021/06/09 10:14:16;;;;;;;12.93;8.10;;;;;;;20.98;61.54;99336.34;5091537;28;20123;-65
2021/06/09 10:16:43;;;;;;;11.95;8.25;;;;;;;20.75;62.41;99324.69;5089908;28;20032;-64
2021/06/09 10:19:11;;;;;;;18.88;8.43;;;;;;;20.78;62.40;99327.13;5091132;28;20113;-65
2021/06/09 10:21:46;;;;;;;10.88;7.50;;;;;;;20.77;62.43;99339.56;5089984;28;20097;-64
2021/06/09 10:24:12;;;;;;;8.90;7.45;;;;;;;20.76;62.47;99321.09;5090944;28;20036;-64
2021/06/09 10:26:39;;;;;;;10.40;7.10;;;;;;;20.73;62.94;99302.69;5090065;28;20325;-65
2021/06/09 10:29:14;;;;;;;10.43;8.40;;;;;;;20.84;62.10;99324.06;5089823;28;20597;-63
2021/06/09 10:31:46;;;;;;;13.05;8.40;;;;;;;20.97;61.67;99300.06;5089617;28;20375;-65
2021/06/09 10:34:12;;;;;;;11.30;8.40;;;;;;;20.97;61.24;99319.53;5091029;28;20489;-63
2021/06/09 10:36:43;;;;;;;14.65;8.32;;;;;;;21.14;59.71;99313.81;5089671;28;20040;-66
2021/06/09 10:39:10;;;;;;;18.35;8.23;;;;;;;21.09;60.32;99308.00;5090207;28;20054;-64
2021/06/09 10:41:40;;;;;;;11.73;6.90;;;;;;;21.31;60.10;99311.75;5090431;28;20514;-65
2021/06/09 10:44:06;;;;;;;9.43;6.05;;;;;;;21.31;59.26;99303.75;5089035;28;20044;-64
2021/06/09 10:46:34;;;;;;;15.77;6.75;;;;;;;21.52;58.96;99288.81;5089373;28;20051;-63
2021/06/09 10:49:01;;;;;;;12.00;6.30;;;;;;;21.61;59.04;99298.78;5072239;28;20067;-65
2021/06/09 10:51:28;;;;;;;23.35;7.57;;;;;;;21.45;58.41;99290.25;5055713;28;20036;-64
2021/06/09 10:53:56;;;;;;;17.10;9.05;;;;;;;21.18;59.47;99301.97;5072972;28;20055;-64
2021/06/09 10:56:23;;;;;;;15.02;7.82;;;;;;;21.20;60.39;99310.69;5089043;28;20173;-65
2021/06/09 10:58:50;;;;;;;18.45;8.23;;;;;;;21.07;60.14;99304.59;5089483;28;20040;-66
2021/06/09 11:01:20;;;;;;;17.85;7.82;;;;;;;21.10;60.46;99304.38;5055484;28;20070;-65
2021/06/09 11:03:47;;;;;;;14.00;7.90;;;;;;;21.00;60.80;99316.66;5088970;28;20078;-69
2021/06/09 11:06:13;;;;;;;13.73;8.52;;;;;;;20.77;61.43;99302.38;5072668;28;20083;-71
2021/06/09 11:08:39;;;;;;;15.30;8.32;;;;;;;20.70;61.92;99297.59;5090003;28;20501;-68
2021/06/09 11:11:21;;;;;;;9.88;6.32;;;;;;;20.67;62.32;99322.59;5068649;28;20040;-66
2021/06/09 11:13:48;;;;;;;12.32;7.47;;;;;;;20.55;62.74;99329.66;5071055;28;20036;-67
2021/06/09 11:16:18;;;;;;;10.32;6.43;;;;;;;20.47;62.31;99326.69;5086593;28;20502;-68
2021/06/09 11:18:45;;;;;;;10.63;6.57;;;;;;;20.58;61.99;99308.16;5085583;28;20036;-67
2021/06/09 11:21:24;;;;;;;16.17;9.38;;;;;;;20.82;61.93;99305.56;5067993;28;20040;-69
2021/06/09 11:23:50;;;;;;;18.08;8.15;;;;;;;20.84;61.60;99297.47;5084294;28;20123;-68
2021/06/09 11:26:29;;;;;;;18.70;8.95;;;;;;;21.21;60.32;99307.06;5083926;28;20483;-69